createdAt,value
2022-11-29T00:01:13.088Z,21.75
2022-11-29T00:03:40.058Z,21.56
2022-11-29T00:06:07.086Z,21.38
2022-11-29T00:08:34.173Z,21.13
2022-11-29T00:11:01.132Z,21.00
2022-11-29T00:13:28.129Z,20.88
2022-11-29T00:15:55.112Z,21.06
2022-11-29T00:18:22.099Z,22.00
2022-11-29T00:20:49.081Z,22.44
2022-11-29T00:23:16.096Z,22.38
2022-11-29T00:25:43.061Z,22.06
2022-11-29T00:28:10.028Z,21.81
2022-11-29T00:30:37.096Z,21.56
2022-11-29T00:33:04.120Z,21.31
2022-11-29T00:35:31.185Z,21.06
2022-11-29T00:37:58.164Z,20.88
2022-11-29T00:40:25.134Z,20.63
2022-11-29T00:42:52.129Z,20.50
2022-11-29T00:45:19.095Z,20.31
2022-11-29T00:47:46.143Z,20.13
2022-11-29T00:50:13.152Z,19.94
2022-11-29T00:52:40.206Z,19.75
2022-11-29T00:55:07.239Z,19.56
2022-11-29T00:57:34.232Z,19.44
2022-11-29T01:00:01.233Z,19.25
2022-11-29T01:02:28.276Z,19.06
2022-11-29T01:04:55.580Z,18.94
2022-11-29T01:07:22.629Z,18.75
2022-11-29T01:09:49.668Z,18.63
2022-11-29T01:12:16.617Z,18.44
2022-11-29T01:14:43.919Z,18.25
2022-11-29T01:17:11.177Z,18.13
2022-11-29T01:19:38.237Z,18.00
2022-11-29T01:22:05.213Z,17.81
2022-11-29T01:24:32.203Z,17.69
2022-11-29T01:26:59.207Z,17.56
2022-11-29T01:29:26.161Z,17.38
2022-11-29T01:31:53.163Z,17.25
2022-11-29T01:34:20.176Z,17.06
2022-11-29T01:36:47.192Z,16.94
2022-11-29T01:39:14.194Z,16.81
2022-11-29T01:41:41.165Z,16.69
2022-11-29T01:44:08.198Z,16.50
2022-11-29T01:46:35.233Z,16.38
2022-11-29T01:49:02.215Z,16.25
2022-11-29T01:51:29.247Z,16.13
2022-11-29T01:53:56.248Z,16.00
2022-11-29T01:56:23.234Z,15.88
2022-11-29T01:58:50.265Z,15.69
2022-11-29T02:01:17.314Z,15.56
2022-11-29T02:03:44.325Z,15.44
2022-11-29T02:06:11.322Z,15.31
2022-11-29T02:08:38.304Z,15.19
2022-11-29T02:11:05.302Z,15.06
2022-11-29T02:13:32.283Z,15.00
2022-11-29T02:15:59.298Z,14.88
2022-11-29T02:18:26.426Z,14.75
2022-11-29T02:20:53.397Z,14.56
2022-11-29T02:23:20.373Z,14.50
2022-11-29T02:25:47.381Z,14.38
2022-11-29T02:28:14.368Z,14.25
2022-11-29T02:30:41.440Z,14.13
2022-11-29T02:33:08.443Z,14.00
2022-11-29T02:35:35.446Z,13.88
2022-11-29T02:38:02.436Z,13.81
2022-11-29T02:40:29.441Z,13.69
2022-11-29T02:42:57.117Z,13.56
2022-11-29T02:45:24.175Z,13.50
2022-11-29T02:47:51.208Z,13.38
2022-11-29T02:50:18.187Z,13.31
2022-11-29T02:52:45.220Z,13.19
2022-11-29T02:55:12.256Z,13.13
2022-11-29T02:57:41.744Z,13.00
2022-11-29T03:00:08.819Z,12.88
2022-11-29T03:02:35.863Z,12.81
2022-11-29T03:05:02.926Z,12.69
2022-11-29T03:07:29.955Z,12.63
2022-11-29T03:09:56.960Z,12.50
2022-11-29T03:12:23.977Z,12.44
2022-11-29T03:14:50.955Z,12.31
2022-11-29T03:17:17.913Z,10.25
2022-11-29T03:27:33.206Z,8.31
2022-11-29T03:30:00.229Z,9.50
2022-11-29T03:32:27.283Z,10.75
2022-11-29T03:34:57.121Z,11.94
2022-11-29T03:37:24.677Z,13.25
2022-11-29T03:39:51.923Z,14.38
2022-11-29T03:42:19.050Z,15.56
2022-11-29T03:44:46.143Z,16.63
2022-11-29T03:47:13.536Z,17.94
2022-11-29T03:49:40.572Z,19.25
2022-11-29T03:52:07.546Z,20.25
2022-11-29T03:54:34.551Z,21.00
2022-11-29T03:57:01.558Z,21.88
2022-11-29T03:59:28.551Z,22.56
2022-11-29T04:01:55.649Z,23.50
2022-11-29T04:04:22.695Z,24.69
2022-11-29T04:06:49.745Z,25.38
2022-11-29T04:09:16.676Z,25.63
2022-11-29T04:11:43.646Z,25.56
2022-11-29T04:14:10.671Z,25.44
2022-11-29T04:16:37.729Z,24.94
2022-11-29T04:19:04.740Z,24.19
2022-11-29T04:21:31.715Z,23.56
2022-11-29T04:23:58.691Z,22.94
2022-11-29T04:26:27.751Z,22.44
2022-11-29T04:28:56.680Z,22.13
2022-11-29T04:31:23.814Z,21.81
2022-11-29T04:33:50.870Z,21.44
2022-11-29T04:36:17.850Z,21.38
2022-11-29T04:38:44.901Z,22.00
2022-11-29T04:41:11.883Z,23.06
2022-11-29T04:43:38.897Z,24.31
2022-11-29T04:46:05.910Z,25.38
2022-11-29T04:48:32.929Z,26.31
2022-11-29T04:50:59.956Z,26.81
2022-11-29T04:53:26.946Z,26.56
2022-11-29T04:55:53.962Z,25.88
2022-11-29T04:58:20.929Z,25.19
2022-11-29T05:00:48.007Z,24.69
2022-11-29T05:03:15.016Z,24.25
2022-11-29T05:05:42.042Z,23.81
2022-11-29T05:08:09.040Z,23.50
2022-11-29T05:10:36.070Z,23.13
2022-11-29T05:13:03.020Z,22.81
2022-11-29T05:15:30.066Z,22.56
2022-11-29T05:17:57.121Z,22.25
2022-11-29T05:20:24.163Z,22.00
2022-11-29T05:22:51.167Z,21.75
2022-11-29T05:25:18.267Z,21.50
2022-11-29T05:27:45.289Z,21.25
2022-11-29T05:30:12.289Z,21.19
2022-11-29T05:32:39.276Z,21.63
2022-11-29T05:35:06.382Z,22.50
2022-11-29T05:37:33.443Z,23.50
2022-11-29T05:40:00.466Z,24.63
2022-11-29T05:42:27.485Z,25.56
2022-11-29T05:44:54.465Z,26.44
2022-11-29T05:47:21.465Z,26.88
2022-11-29T05:49:48.531Z,26.81
2022-11-29T05:52:15.574Z,26.19
2022-11-29T05:54:42.706Z,25.75
2022-11-29T05:57:09.855Z,25.19
2022-11-29T05:59:36.829Z,24.69
2022-11-29T06:02:03.896Z,24.31
2022-11-29T06:04:30.884Z,23.94
2022-11-29T06:06:57.889Z,23.63
2022-11-29T06:09:24.894Z,23.25
2022-11-29T06:11:51.894Z,22.94
2022-11-29T06:16:50.028Z,22.50
2022-11-29T06:19:17.071Z,22.31
2022-11-29T06:21:44.052Z,22.00
2022-11-29T06:24:11.057Z,21.81
2022-11-29T06:26:38.045Z,21.56
2022-11-29T06:29:05.092Z,21.31
2022-11-29T06:31:32.149Z,21.13
2022-11-29T06:33:59.183Z,21.00
2022-11-29T06:36:26.179Z,21.31
2022-11-29T06:38:53.168Z,21.81
2022-11-29T06:41:20.176Z,22.94
2022-11-29T06:43:48.289Z,24.13
2022-11-29T06:46:15.394Z,25.50
2022-11-29T06:48:42.393Z,26.44
2022-11-29T06:51:09.435Z,26.63
2022-11-29T06:53:36.477Z,26.50
2022-11-29T06:56:03.474Z,25.94
2022-11-29T06:58:35.855Z,25.38
2022-11-29T07:01:03.380Z,24.88
2022-11-29T07:03:30.478Z,24.56
2022-11-29T07:05:57.455Z,24.31
2022-11-29T07:08:24.469Z,24.00
2022-11-29T07:10:51.476Z,23.75
2022-11-29T07:13:18.475Z,23.44
2022-11-29T07:15:45.520Z,23.19
2022-11-29T07:18:12.543Z,23.00
2022-11-29T07:20:41.614Z,22.75
2022-11-29T07:23:08.598Z,22.56
2022-11-29T07:25:35.581Z,22.38
2022-11-29T07:28:02.625Z,22.19
2022-11-29T07:30:29.805Z,22.00
2022-11-29T07:33:00.368Z,21.81
2022-11-29T07:35:27.924Z,21.69
2022-11-29T07:37:55.032Z,21.56
2022-11-29T07:40:22.080Z,21.38
2022-11-29T07:42:49.087Z,21.25
2022-11-29T07:45:16.106Z,21.13
2022-11-29T07:47:43.179Z,21.00
2022-11-29T07:50:10.184Z,21.00
2022-11-29T07:52:37.231Z,21.50
2022-11-29T07:55:04.281Z,22.50
2022-11-29T07:57:31.306Z,23.75
2022-11-29T07:59:58.312Z,25.06
2022-11-29T08:02:25.338Z,26.31
2022-11-29T08:04:52.380Z,26.81
2022-11-29T08:07:19.477Z,26.94
2022-11-29T08:09:46.745Z,26.69
2022-11-29T08:12:13.974Z,26.38
2022-11-29T08:14:41.027Z,26.13
2022-11-29T08:17:09.626Z,25.88
2022-11-29T08:19:36.638Z,25.63
2022-11-29T08:22:03.685Z,25.44
2022-11-29T08:24:30.665Z,25.31
2022-11-29T08:26:57.686Z,25.19
2022-11-29T08:29:24.732Z,25.13
2022-11-29T08:31:51.746Z,25.06
2022-11-29T08:34:18.812Z,25.00
2022-11-29T08:36:45.872Z,25.00
2022-11-29T08:39:12.929Z,24.94
2022-11-29T08:41:39.938Z,24.94
2022-11-29T08:44:08.944Z,24.81
2022-11-29T08:46:35.938Z,24.75
2022-11-29T08:49:02.944Z,24.81
2022-11-29T08:51:29.971Z,24.81
2022-11-29T08:53:56.975Z,24.75
2022-11-29T08:57:10.294Z,24.81
2022-11-29T08:59:10.972Z,24.75
2022-11-29T09:01:38.045Z,24.44
2022-11-29T09:04:05.088Z,24.44
2022-11-29T09:06:32.165Z,24.38
2022-11-29T09:08:59.182Z,24.31
2022-11-29T09:11:26.207Z,24.25
2022-11-29T09:13:53.174Z,24.13
2022-11-29T09:16:20.197Z,24.06
2022-11-29T09:18:51.462Z,24.06
2022-11-29T09:21:19.073Z,24.00
2022-11-29T09:23:46.262Z,23.75
2022-11-29T09:26:13.341Z,23.63
2022-11-29T09:28:40.393Z,23.50
2022-11-29T09:31:07.434Z,23.19
2022-11-29T09:33:34.457Z,23.13
2022-11-29T09:36:01.549Z,22.94
2022-11-29T09:38:28.760Z,22.81
2022-11-29T09:40:55.743Z,22.63
2022-11-29T09:43:22.755Z,22.63
2022-11-29T09:45:49.821Z,22.56
2022-11-29T09:48:16.871Z,22.38
2022-11-29T09:50:43.898Z,22.38
2022-11-29T09:53:10.913Z,22.19
2022-11-29T09:55:37.940Z,22.13
2022-11-29T09:58:04.925Z,22.06
2022-11-29T10:00:31.997Z,21.94
2022-11-29T10:02:59.015Z,21.88
2022-11-29T10:05:26.010Z,21.81
2022-11-29T10:07:53.057Z,21.75
2022-11-29T10:10:20.113Z,21.63
2022-11-29T10:12:47.108Z,21.56
2022-11-29T10:15:14.182Z,21.56
2022-11-29T10:17:41.260Z,20.50
2022-11-29T10:20:08.296Z,21.13
2022-11-29T10:22:35.279Z,22.50
2022-11-29T10:25:02.251Z,23.88
2022-11-29T10:27:29.254Z,25.25
2022-11-29T10:29:56.270Z,26.38
2022-11-29T10:32:23.291Z,26.94
2022-11-29T10:34:50.289Z,27.06
2022-11-29T10:37:17.337Z,26.94
2022-11-29T10:39:44.326Z,26.56
2022-11-29T10:42:11.392Z,26.00
2022-11-29T10:44:38.483Z,25.81
2022-11-29T10:47:10.447Z,25.38
2022-11-29T10:49:38.111Z,24.75
2022-11-29T10:52:05.096Z,24.31
2022-11-29T10:54:32.135Z,23.94
2022-11-29T10:56:59.093Z,23.56
2022-11-29T10:59:26.133Z,23.31
2022-11-29T11:01:53.154Z,23.06
2022-11-29T11:04:20.171Z,22.94
2022-11-29T11:06:47.167Z,22.81
2022-11-29T11:09:14.152Z,22.75
2022-11-29T11:11:41.182Z,22.63
2022-11-29T11:14:08.165Z,22.56
2022-11-29T11:16:37.588Z,22.50
2022-11-29T11:19:04.869Z,22.44
2022-11-29T11:21:31.867Z,22.50
2022-11-29T11:23:58.842Z,22.44
2022-11-29T11:26:25.848Z,22.50
2022-11-29T11:28:52.861Z,22.44
2022-11-29T11:31:19.919Z,22.50
2022-11-29T11:33:46.983Z,22.50
2022-11-29T11:36:13.988Z,22.50
2022-11-29T11:38:41.000Z,22.63
2022-11-29T11:41:07.976Z,22.50
2022-11-29T11:43:34.964Z,22.50
2022-11-29T11:46:02.106Z,22.50
2022-11-29T11:48:29.149Z,22.56
2022-11-29T11:50:56.143Z,22.63
2022-11-29T11:53:23.130Z,22.56
2022-11-29T11:55:50.128Z,22.69
2022-11-29T11:58:17.122Z,22.56
2022-11-29T12:03:31.190Z,22.50
2022-11-29T12:05:58.177Z,22.50
2022-11-29T12:08:25.239Z,22.56
2022-11-29T12:10:52.259Z,22.44
2022-11-29T12:13:19.288Z,22.38
2022-11-29T12:15:46.431Z,22.31
2022-11-29T12:18:13.448Z,22.38
2022-11-29T12:20:40.461Z,22.25
2022-11-29T12:23:07.431Z,22.13
2022-11-29T12:25:34.437Z,22.13
2022-11-29T12:28:01.459Z,22.13
2022-11-29T12:30:28.475Z,22.06
2022-11-29T12:32:55.505Z,22.00
2022-11-29T12:35:22.481Z,21.94
2022-11-29T12:37:49.541Z,21.88
2022-11-29T12:40:16.616Z,21.81
2022-11-29T12:42:43.654Z,21.75
2022-11-29T12:45:10.707Z,21.63
2022-11-29T12:47:37.937Z,21.69
2022-11-29T12:50:05.166Z,21.63
2022-11-29T12:52:32.218Z,21.56
2022-11-29T12:54:59.196Z,21.50
2022-11-29T12:57:26.206Z,21.44
2022-11-29T12:59:53.225Z,21.31
2022-11-29T13:02:20.296Z,21.38
2022-11-29T13:04:47.710Z,21.88
2022-11-29T13:07:14.886Z,22.63
2022-11-29T13:09:41.887Z,23.69
2022-11-29T13:12:08.883Z,24.69
2022-11-29T13:14:54.944Z,25.69
2022-11-29T13:17:21.983Z,26.06
2022-11-29T13:19:49.007Z,26.00
2022-11-29T13:22:15.965Z,25.88
2022-11-29T13:24:43.331Z,25.44
2022-11-29T13:27:10.474Z,25.00
2022-11-29T13:29:37.439Z,24.56
2022-11-29T13:32:04.423Z,24.25
2022-11-29T13:34:31.452Z,23.94
2022-11-29T13:36:58.497Z,23.63
2022-11-29T13:39:25.533Z,23.31
2022-11-29T13:41:52.549Z,22.94
2022-11-29T13:44:19.604Z,22.69
2022-11-29T13:46:46.641Z,22.38
2022-11-29T13:49:13.772Z,22.13
2022-11-29T13:51:40.750Z,21.88
2022-11-29T13:54:07.765Z,21.63
2022-11-29T13:56:34.757Z,21.44
2022-11-29T13:59:01.803Z,21.25
2022-11-29T14:01:28.889Z,21.06
2022-11-29T14:03:55.921Z,21.25
2022-11-29T14:06:22.875Z,22.13
2022-11-29T14:11:36.979Z,24.13
2022-11-29T14:14:04.031Z,25.13
2022-11-29T14:16:30.994Z,26.19
2022-11-29T14:18:57.968Z,26.88
2022-11-29T14:21:24.978Z,27.06
2022-11-29T14:23:52.002Z,26.69
2022-11-29T14:26:20.589Z,25.94
2022-11-29T14:28:50.776Z,25.44
2022-11-29T14:31:17.808Z,25.00
2022-11-29T14:33:44.852Z,24.50
2022-11-29T14:36:11.862Z,24.00
2022-11-29T14:38:38.856Z,23.56
2022-11-29T14:41:05.880Z,23.19
2022-11-29T14:43:32.884Z,22.88
2022-11-29T14:45:59.960Z,22.56
2022-11-29T14:48:26.963Z,22.25
2022-11-29T14:50:53.945Z,21.94
2022-11-29T14:53:20.978Z,21.69
2022-11-29T14:55:47.999Z,21.38
2022-11-29T14:58:14.998Z,21.19
2022-11-29T15:00:42.017Z,20.88
2022-11-29T15:03:09.013Z,20.81
2022-11-29T15:05:35.980Z,21.19
2022-11-29T17:18:18.010Z,7.31
2022-11-29T17:20:46.225Z,7.44
2022-11-29T17:26:03.388Z,9.25
2022-11-29T17:28:31.031Z,10.44
2022-11-29T17:30:58.043Z,11.94
2022-11-29T17:33:27.371Z,13.13
2022-11-29T17:35:54.371Z,14.44
2022-11-29T17:38:21.432Z,15.31
2022-11-29T17:40:48.411Z,16.13
2022-11-29T17:43:15.435Z,17.13
2022-11-29T17:45:42.796Z,18.25
2022-11-29T17:48:09.848Z,19.13
2022-11-29T17:50:36.874Z,19.88
2022-11-29T17:53:03.854Z,20.56
2022-11-29T17:55:30.878Z,21.19
2022-11-29T17:57:57.905Z,22.25
2022-11-29T18:00:24.881Z,22.75
2022-11-29T18:02:51.901Z,23.81
2022-11-29T18:05:18.953Z,24.44
2022-11-29T18:07:45.983Z,25.19
2022-11-29T18:10:13.019Z,25.44
2022-11-29T18:12:40.050Z,25.00
2022-11-29T18:15:07.068Z,24.44
2022-11-29T18:17:34.095Z,23.75
2022-11-29T18:20:01.083Z,23.06
2022-11-29T18:22:28.082Z,22.50
2022-11-29T18:25:09.824Z,22.06
2022-11-29T18:27:42.029Z,21.06
2022-11-29T18:30:09.047Z,21.31
2022-11-29T18:32:36.057Z,22.13
2022-11-29T18:35:03.028Z,23.13
2022-11-29T18:38:05.035Z,24.00
2022-11-29T18:40:17.014Z,24.38
2022-11-29T18:42:44.141Z,24.13
2022-11-29T18:45:11.149Z,23.69
2022-11-29T18:47:38.186Z,23.38
2022-11-29T18:50:05.375Z,23.06
2022-11-29T18:52:36.476Z,22.75
2022-11-29T18:55:06.350Z,22.44
2022-11-29T18:57:33.678Z,22.00
2022-11-29T19:00:00.701Z,21.75
2022-11-29T19:02:27.752Z,21.38
2022-11-29T19:04:54.800Z,21.13
2022-11-29T19:07:21.861Z,20.88
2022-11-29T19:09:48.933Z,21.00
2022-11-29T19:12:15.996Z,21.63
2022-11-29T19:14:49.436Z,22.44
2022-11-29T19:17:17.027Z,23.44
2022-11-29T19:19:44.517Z,23.88
2022-11-29T19:22:11.992Z,23.81
2022-11-29T19:24:39.058Z,23.75
2022-11-29T19:27:06.266Z,23.44
2022-11-29T19:29:39.382Z,23.19
2022-11-29T19:32:06.965Z,22.75
2022-11-29T19:34:34.168Z,22.38
2022-11-29T19:37:03.795Z,22.00
2022-11-29T19:39:30.869Z,21.63
2022-11-29T19:41:57.860Z,21.31
2022-11-29T19:44:29.793Z,21.00
2022-11-29T19:46:57.058Z,20.75
2022-11-29T19:49:24.235Z,20.94
2022-11-29T19:51:51.447Z,21.75
2022-11-29T19:54:18.539Z,22.81
2022-11-29T19:56:45.551Z,23.00
2022-11-29T19:59:12.621Z,23.00
2022-11-29T20:01:42.343Z,22.88
2022-11-29T20:04:10.145Z,22.63
2022-11-29T20:06:37.254Z,22.31
2022-11-29T20:09:04.700Z,22.00
2022-11-29T20:11:31.839Z,21.63
2022-11-29T20:13:58.927Z,21.44
2022-11-29T20:16:25.929Z,21.19
2022-11-29T20:18:52.993Z,21.00
2022-11-29T20:21:20.280Z,20.88
2022-11-29T20:23:47.359Z,20.81
2022-11-29T20:26:14.736Z,20.81
2022-11-29T20:28:42.224Z,20.69
2022-11-29T20:31:09.330Z,20.63
2022-11-29T20:33:36.569Z,20.44
2022-11-29T20:36:03.807Z,20.31
2022-11-29T20:38:30.874Z,20.38
2022-11-29T20:41:02.426Z,20.69
2022-11-29T20:43:29.941Z,21.56
2022-11-29T20:45:57.167Z,22.75
2022-11-29T20:48:24.508Z,23.75
2022-11-29T20:50:51.749Z,24.13
2022-11-29T20:53:21.943Z,24.00
2022-11-29T20:55:49.337Z,23.75
2022-11-29T20:58:16.402Z,23.56
2022-11-29T21:00:43.496Z,23.31
2022-11-29T21:03:10.808Z,23.00
2022-11-29T21:05:37.901Z,22.75
2022-11-29T21:08:05.521Z,22.50
2022-11-29T21:10:33.077Z,22.25
2022-11-29T21:13:00.242Z,22.00
2022-11-29T21:15:27.296Z,21.81
2022-11-29T21:17:54.366Z,21.56
2022-11-29T21:20:21.392Z,21.38
2022-11-29T21:22:48.394Z,21.19
2022-11-29T21:25:15.473Z,21.06
2022-11-29T21:27:42.571Z,20.88
2022-11-29T21:30:09.727Z,20.75
2022-11-29T21:32:36.810Z,20.69
2022-11-29T21:35:03.850Z,20.56
2022-11-29T21:37:30.854Z,20.50
2022-11-29T21:39:57.881Z,20.63
2022-11-29T21:42:24.893Z,21.19
2022-11-29T21:44:51.875Z,22.31
2022-11-29T21:47:18.899Z,23.94
2022-11-29T21:49:45.912Z,25.00
2022-11-29T21:52:16.442Z,25.56
2022-11-29T21:54:46.465Z,25.31
2022-11-29T21:57:13.762Z,25.06
2022-11-29T21:59:40.794Z,25.00
2022-11-29T22:02:07.926Z,24.75
2022-11-29T22:04:35.088Z,24.50
2022-11-29T22:07:02.150Z,24.50
2022-11-29T22:09:29.181Z,24.38
2022-11-29T22:11:56.149Z,24.38
2022-11-29T22:14:23.167Z,24.44
2022-11-29T22:16:50.236Z,24.56
2022-11-29T22:19:17.244Z,24.75
2022-11-29T22:21:44.243Z,24.94
2022-11-29T22:24:11.208Z,25.19
2022-11-29T22:26:38.227Z,25.38
2022-11-29T22:29:05.245Z,25.50
2022-11-29T22:31:32.380Z,25.69
2022-11-29T22:33:59.466Z,25.81
2022-11-29T22:36:26.467Z,26.13
2022-11-29T22:38:53.651Z,26.19
2022-11-29T22:41:20.692Z,26.31
2022-11-29T22:43:47.751Z,26.50
2022-11-29T22:46:14.756Z,26.50
2022-11-29T22:48:41.992Z,26.63
2022-11-29T22:51:09.028Z,26.69
2022-11-29T22:53:36.028Z,26.69
2022-11-29T22:56:03.054Z,26.75
2022-11-29T22:58:30.054Z,26.75
2022-11-29T23:00:57.082Z,26.75
2022-11-29T23:03:24.117Z,26.75
2022-11-29T23:05:51.192Z,26.63
2022-11-29T23:08:18.270Z,26.63
2022-11-29T23:10:45.236Z,26.63
2022-11-29T23:13:12.319Z,26.69
2022-11-29T23:15:39.419Z,26.63
2022-11-29T23:18:06.379Z,26.56
2022-11-29T23:20:33.376Z,26.56
2022-11-29T23:23:00.408Z,26.50
2022-11-29T23:25:27.390Z,26.50
2022-11-29T23:27:54.362Z,26.50
2022-11-29T23:30:21.345Z,26.50
2022-11-29T23:32:48.385Z,26.50
2022-11-29T23:35:15.430Z,26.50
2022-11-29T23:37:42.429Z,26.44
2022-11-29T23:40:09.486Z,26.44
2022-11-29T23:42:36.630Z,26.44
2022-11-29T23:45:03.614Z,26.44
2022-11-29T23:47:30.581Z,26.31
2022-11-29T23:49:57.569Z,26.31
2022-11-29T23:52:24.588Z,26.31
2022-11-29T23:54:51.643Z,26.25
2022-11-29T23:57:18.688Z,26.19
2022-11-29T23:59:45.714Z,26.19
